Mataguay (212) Station Data

Red Flag Warning: No
Fire Weather Zone: 258
SDGE Region: Ramona
Lat/Lon: 33.223/-116.699

Observations

Time Wind Speed/Gust Temp(F) RH Fuel Moist Fuel Temp(F) Dewpt(F) Tmax(F) Tmin(F) Accum Precip 10-min Precip SL Press(mb)
6/22 4:50am 35 0 G 1 60° 55% - - 44° 70.7° 59.9° - - 979.0
6/22 4:40am 90 0 G 1 60° 57% - - 45° 70.7° 59.9° - - 980.0
6/22 4:30am 0 0 G 0 60° 58% - - 45° 70.7° 59.9° - - 980.0
6/22 4:20am 0 0 G 0 61° 57% - - 46° 70.7° 60.7° - - 980.0
6/22 4:10am 151 0 G 1 61° 55% - - 45° 70.7° 61° - - 980.0
6/22 4:00am 0 0 G 0 62° 57% - - 46° 70.7° 61° - - 981.0
6/22 3:50am 221 1 G 2 62° 57% - - 47° 70.7° 61.7° - - 981.0
6/22 3:40am 182 2 G 3 62° 52% - - 44° 70.7° 61.7° - - 978.0
6/22 3:30am 199 0 G 2 63° 47% - - 42° 70.7° 61.9° - - 977.0
6/22 3:20am 0 0 G 0 63° 46% - - 42° 70.7° 62.7° - - 976.0
6/22 3:10am 77 1 G 2 63° 46% - - 42° 70.7° 62.7° - - 976.0
6/22 3:00am 31 1 G 1 63° 47% - - 43° 70.7° 62.8° - - 977.0
6/22 2:50am 42 0 G 2 65° 46% - - 43° 70.7° 63.2° - - 976.0
6/22 2:40am 146 1 G 2 64° 47% - - 44° 70.7° 63.2° - - 977.0
6/22 2:30am 138 0 G 1 64° 48% - - 43° 70.7° 63.2° - - 977.0
6/22 2:20am 41 0 G 0 64° 47% - - 43° 70.7° 63.4° - - 977.0
6/22 2:10am 57 0 G 1 64° 47% - - 43° 70.7° 63.8° - - 977.0
6/22 2:00am 230 0 G 0 65° 46% - - 44° 70.7° 64.5° - - 977.0
6/22 1:50am 210 1 G 2 66° 46% - - 44° 70.7° 65.3° - - 977.0
6/22 1:40am 203 1 G 2 66° 46% - - 45° 70.7° 65.5° - - 977.0
6/22 1:30am 183 1 G 3 67° 44% - - 44° 70.7° 65.7° - - 976.0
6/22 1:20am 73 0 G 2 68° 42% - - 45° 70.7° 67.7° - - 976.0
6/22 1:10am 84 1 G 2 69° 42% - - 45° 70.7° 67.7° - - 976.0
6/22 1:00am 95 0 G 1 68° 43% - - 45° 70.7° 67.7° - - 976.0
6/22 12:50am 0 0 G 0 68° 43% - - 45° 70.7° 67.7° - - 976.0
6/22 12:40am 0 0 G 0 68° 44% - - 45° 70.7° 67.7° - - 977.0
6/22 12:30am 259 1 G 3 69° 43% - - 45° 70.7° 68.3° - - 976.0
6/22 12:20am 183 2 G 3 69° 42% - - 45° 70.7° 68.4° - - 976.0
6/22 12:10am 98 0 G 1 70° 40% - - 45° 70.6° 70° - - 976.0
6/22 12:00am 86 0 G 1 70° 39% - - 45° 99.9° 57.6° - - 975.0
6/21 11:50pm 106 0 G 1 70° 40% - - 45° 99.9° 57.6° - - 975.0
6/21 11:40pm 98 0 G 1 70° 40% - - 45° 99.9° 57.6° - - 976.0
6/21 11:30pm 311 0 G 1 71° 40% - - 45° 99.9° 57.6° - - 976.0
6/21 11:20pm 217 0 G 2 72° 39% - - 46° 99.9° 57.6° - - 976.0
6/21 11:10pm 202 2 G 3 73° 39% - - 46° 99.9° 57.6° - - 976.0
6/21 11:00pm 183 2 G 4 72° 41% - - 47° 99.9° 57.6° - - 976.0
6/21 10:50pm 157 1 G 2 74° 38% - - 47° 99.9° 57.6° - - 975.0
6/21 10:40pm 96 1 G 4 75° 36% - - 46° 99.9° 57.6° - - 975.0
6/21 10:30pm 163 1 G 2 76° 35% - - 46° 99.9° 57.6° - - 975.0
6/21 10:20pm 150 1 G 1 75° 36% - - 46° 99.9° 57.6° - - 975.0
6/21 10:10pm 0 0 G 0 75° 35% - - 46° 99.9° 57.6° - - 975.0
6/21 10:00pm 91 0 G 2 75° 38% - - 48° 99.9° 57.6° - - 976.0
6/21 9:50pm 111 1 G 2 77° 36% - - 48° 99.9° 57.6° - - 975.0
6/21 9:40pm 89 1 G 2 79° 33% - - 48° 99.9° 57.6° - - 975.0
6/21 9:30pm 101 3 G 5 77° 34% - - 46° 99.9° 57.6° - - 975.0
6/21 9:20pm 73 3 G 5 76° 37% - - 47° 99.9° 57.6° - - 976.0
6/21 9:10pm 51 2 G 4 79° 34% - - 48° 99.9° 57.6° - - 975.0
6/21 9:00pm 105 3 G 6 80° 33% - - 48° 99.9° 57.6° - - 975.0
6/21 8:50pm 151 2 G 5 82° 35% - - 51° 99.9° 57.6° - - 977.0
6/21 8:40pm 175 2 G 3 82° 35% - - 51° 99.9° 57.6° - - 977.0
6/21 8:30pm 132 1 G 3 83° 34% - - 52° 99.9° 57.6° - - 977.0
6/21 8:20pm 288 1 G 3 84° 35% - - 53° 99.9° 57.6° - - 977.0
6/21 8:10pm 243 3 G 4 84° 34% - - 53° 99.9° 57.6° - - 977.0
6/21 8:00pm 240 3 G 8 85° 33% - - 52° 99.9° 57.6° - - 977.0
6/21 7:50pm 188 7 G 9 85° 32% - - 52° 99.9° 57.6° - - 977.0
6/21 7:40pm 238 6 G 9 86° 34% - - 54° 99.9° 57.6° - - 978.0
6/21 7:30pm 262 7 G 9 86° 33% - - 54° 99.9° 57.6° - - 978.0
6/21 7:20pm 245 9 G 11 87° 32% - - 54° 99.9° 57.6° - - 977.0
6/21 7:10pm 252 8 G 10 88° 31% - - 54° 99.9° 57.6° - - 977.0
6/21 7:00pm 256 8 G 11 89° 30% - - 53° 99.9° 57.6° - - 977.0
6/21 6:50pm 239 10 G 14 89° 28% - - 52° 99.9° 57.6° - - 976.0
6/21 6:40pm 223 14 G 19 90° 27% - - 52° 99.9° 57.6° - - 976.0
6/21 6:30pm 225 16 G 20 90° 27% - - 52° 99.9° 57.6° - - 976.0
6/21 6:20pm 227 18 G 22 90° 27% - - 52° 99.9° 57.6° - - 976.0
6/21 6:10pm 224 17 G 20 91° 26% - - 51° 99.9° 57.6° - - 976.0
6/21 6:00pm 226 15 G 18 92° 25% - - 51° 99.9° 57.6° - - 976.0
6/21 5:50pm 226 15 G 17 92° 24% - - 50° 99.9° 57.6° - - 976.0
6/21 5:40pm 226 14 G 18 93° 23% - - 49° 99.9° 57.6° - - 976.0
6/21 5:30pm 233 13 G 16 94° 21% - - 48° 99.9° 57.6° - - 975.0
6/21 5:20pm 248 11 G 15 94° 20% - - 47° 99.9° 57.6° - - 975.0
6/21 5:10pm 254 12 G 15 94° 20% - - 47° 99.9° 57.6° - - 975.0
6/21 5:00pm 247 12 G 15 95° 19% - - 46° 99.9° 57.6° - - 975.0
6/21 4:50pm 248 12 G 15 95° 18% - - 44° 99.9° 57.6° - - 975.0
6/21 4:40pm 241 12 G 16 95° 16% - - 42° 99.9° 57.6° - - 974.0
6/21 4:30pm 244 12 G 15 96° 15% - - 40° 99.9° 57.6° - - 974.0
6/21 4:20pm 248 12 G 16 96° 15% - - 41° 99.9° 57.6° - - 974.0
6/21 4:10pm 247 13 G 17 96° 14% - - 40° 99.9° 57.6° - - 974.0
6/21 4:00pm 248 12 G 16 97° 14% - - 39° 99.9° 57.6° - - 974.0
6/21 3:50pm 251 13 G 18 97° 14% - - 40° 99.9° 57.6° - - 974.0
6/21 3:40pm 248 13 G 17 97° 14% - - 41° 99.9° 57.6° - - 974.0
6/21 3:30pm 250 13 G 17 97° 13% - - 38° 99.9° 57.6° - - 973.0
6/21 3:20pm 245 14 G 19 97° 14% - - 39° 99.9° 57.6° - - 973.0
6/21 3:10pm 248 14 G 19 97° 12% - - 37° 99.9° 57.6° - - 973.0
6/21 3:00pm 245 13 G 18 98° 12% - - 37° 99.9° 57.6° - - 973.0
6/21 2:50pm 246 13 G 18 98° 13% - - 38° 99.9° 57.6° - - 973.0
6/21 2:40pm 247 12 G 19 98° 12% - - 37° 99.9° 57.6° - - 973.0
6/21 2:30pm 236 14 G 20 98° 11% - - 34° 99.9° 57.6° - - 973.0
6/21 2:20pm 251 13 G 19 98° 10% - - 33° 99.9° 57.6° - - 972.0
6/21 2:10pm 246 13 G 19 98° 10% - - 32° 99.9° 57.6° - - 972.0
6/21 2:00pm 244 13 G 19 99° 10% - - 33° 99.9° 57.6° - - 972.0
6/21 1:50pm 241 13 G 18 98° 10% - - 32° 99.9° 57.6° - - 972.0
6/21 1:40pm 244 13 G 17 98° 9% - - 31° 99.9° 57.6° - - 972.0
6/21 1:30pm 237 13 G 19 98° 9% - - 30° 99.9° 57.6° - - 972.0
6/21 1:20pm 227 11 G 20 99° 9% - - 31° 99.9° 57.6° - - 972.0
6/21 1:10pm 242 13 G 21 99° 10% - - 32° 99.7° 57.6° - - 972.0
6/21 1:00pm 243 12 G 18 98° 10% - - 31° 99.7° 57.6° - - 972.0
6/21 12:50pm 232 14 G 20 99° 9% - - 30° 99.7° 57.6° - - 972.0
6/21 12:40pm 242 11 G 18 99° 7% - - 25° 99.7° 57.6° - - 971.0
6/21 12:30pm 239 11 G 17 99° 7% - - 23° 99.7° 57.6° - - 971.0
6/21 12:20pm 244 10 G 15 98° 8% - - 27° 99.5° 57.6° - - 971.0
6/21 12:10pm 287 9 G 17 98° 8% - - 28° 99.5° 57.6° - - 971.0
6/21 12:00pm 278 6 G 12 99° 8% - - 27° 99.5° 57.6° - - 971.0
6/21 11:50am 238 6 G 10 99° 7% - - 24° 99.5° 57.6° - - 971.0
6/21 11:40am 248 7 G 13 99° 8% - - 26° 99.5° 57.6° - - 971.0
6/21 11:30am 254 6 G 12 99° 9% - - 30° 99.5° 57.6° - - 972.0
6/21 11:20am 269 4 G 10 97° 11% - - 34° 98.6° 57.6° - - 972.0
6/21 11:10am 265 3 G 8 98° 11% - - 34° 98.6° 57.6° - - 972.0
6/21 11:00am 249 3 G 6 97° 11% - - 34° 97.8° 57.6° - - 972.0
6/21 10:50am 311 3 G 6 96° 12% - - 35° 96.7° 57.6° - - 972.0
6/21 10:40am 259 3 G 5 95° 13% - - 36° 95° 57.6° - - 972.0
6/21 10:30am 305 2 G 5 93° 13% - - 35° 94.1° 57.6° - - 971.0
6/21 10:20am 315 3 G 5 92° 14% - - 36° 92.2° 57.6° - - 971.0
6/21 10:10am 258 2 G 5 90° 17% - - 39° 90.9° 57.6° - - 972.0
6/21 10:00am 254 2 G 5 89° 20% - - 42° 89.5° 57.6° - - 972.0
6/21 9:50am 289 2 G 4 87° 21% - - 43° 88.1° 57.6° - - 973.0
6/21 9:40am 325 1 G 3 85° 24% - - 44° 86.2° 57.6° - - 973.0
6/21 9:30am 320 1 G 3 83° 27% - - 45° 83.9° 57.6° - - 973.0
6/21 9:20am 330 2 G 4 81° 28% - - 45° 82.2° 57.6° - - 974.0
6/21 9:10am 309 1 G 2 79° 30% - - 45° 80° 57.6° - - 974.0
6/21 9:00am 323 1 G 3 77° 32% - - 45° 78.6° 57.6° - - 974.0
6/21 8:50am 328 1 G 3 75° 35% - - 46° 76.5° 57.6° - - 975.0
6/21 8:40am 274 1 G 5 74° 40% - - 48° 74.7° 57.6° - - 977.0
6/21 8:30am 295 1 G 3 72° 43% - - 49° 73.5° 57.6° - - 978.0
6/21 8:20am 281 1 G 3 71° 46% - - 49° 72° 57.6° - - 978.0
6/21 8:10am 307 1 G 3 69° 49% - - 49° 72° 57.6° - - 979.0
6/21 8:00am 345 1 G 2 68° 52% - - 50° 72° 57.6° - - 980.0
6/21 7:50am 266 1 G 2 66° 54% - - 49° 72° 57.6° - - 981.0
6/21 7:40am 264 1 G 2 65° 55% - - 49° 72° 57.6° - - 981.0
6/21 7:30am 326 0 G 1 64° 59% - - 49° 72° 57.6° - - 982.0
6/21 7:20am 7 0 G 1 63° 61% - - 49° 72° 57.6° - - 983.0
6/21 7:10am 15 1 G 2 61° 63% - - 49° 72° 57.6° - - 983.0
6/21 7:00am 30 0 G 1 60° 65% - - 48° 72° 57.6° - - 984.0
6/21 6:50am 1 0 G 1 59° 68% - - 48° 72° 57.6° - - 985.0
6/21 6:40am 175 0 G 1 58° 68% - - 47° 72° 57.6° - - 984.0
6/21 6:30am 263 0 G 1 58° 65% - - 47° 72° 57.7° - - 983.0
6/21 6:20am 261 1 G 3 60° 60% - - 46° 72° 58.3° - - 981.0
6/21 6:10am 223 2 G 3 61° 56% - - 46° 72° 58.3° - - 980.0
6/21 6:00am 196 1 G 3 60° 57% - - 45° 72° 58.3° - - 980.0
6/21 5:50am 75 2 G 3 60° 55% - - 44° 72° 58.3° - - 980.0
6/21 5:40am 48 3 G 5 59° 63% - - 47° 72° 58.3° - - 983.0
6/21 5:30am 49 3 G 5 59° 68% - - 49° 72° 58.3° - - 985.0
6/21 5:20am 105 1 G 3 59° 69% - - 49° 72° 58.3° - - 985.0
6/21 5:10am 153 0 G 2 59° 68% - - 48° 72° 58.3° - - 985.0
6/21 5:00am 0 0 G 0 59° 67% - - 48° 72° 58.8° - - 984.0
6/21 4:50am 18 0 G 1 60° 65% - - 49° 72° 59.4° - - 984.0
6/21 4:40am 228 0 G 2 62° 65% - - 50° 72° 61.3° - - 984.0
6/21 4:30am 220 3 G 5 62° 64% - - 49° 72° 61.4° - - 983.0
6/21 4:20am 208 3 G 5 62° 62% - - 49° 72° 61.4° - - 983.0
6/21 4:10am 43 1 G 3 64° 58% - - 49° 72° 62.5° - - 981.0
6/21 4:00am 65 3 G 5 63° 62% - - 50° 72° 62.5° - - 983.0
6/21 3:50am 72 1 G 3 63° 61% - - 49° 72° 62.5° - - 983.0
6/21 3:40am 0 0 G 0 63° 60% - - 49° 72° 63° - - 982.0
6/21 3:30am 0 0 G 0 64° 60% - - 50° 72° 63.6° - - 982.0
6/21 3:20am 0 0 G 0 64° 60% - - 50° 72° 63.9° - - 982.0
6/21 3:10am 153 0 G 1 64° 58% - - 49° 72° 63.9° - - 982.0
6/21 3:00am 0 0 G 0 65° 57% - - 49° 72° 64.3° - - 981.0
6/21 2:50am 0 0 G 0 65° 55% - - 49° 72° 64.6° - - 981.0
6/21 2:40am 179 0 G 1 66° 55% - - 49° 72° 65.2° - - 981.0
6/21 2:30am 248 0 G 1 66° 52% - - 49° 72° 65.7° - - 980.0
6/21 2:20am 257 0 G 1 67° 51% - - 49° 72° 66.9° - - 979.0
6/21 2:10am 110 0 G 1 68° 50% - - 49° 72° 66.9° - - 979.0
6/21 2:00am 178 0 G 2 67° 51% - - 49° 72° 66.9° - - 979.0
6/21 1:50am 185 2 G 2 67° 50% - - 48° 72° 66.9° - - 979.0
6/21 1:40am 216 1 G 2 68° 47% - - 47° 72° 67.3° - - 978.0
6/21 1:30am 0 0 G 0 70° 44% - - 47° 72° 68.8° - - 977.0
6/21 1:20am 53 0 G 2 70° 45% - - 47° 72° 69.1° - - 977.0
6/21 1:10am 77 1 G 2 70° 44% - - 47° 72° 69.1° - - 977.0
6/21 1:00am 123 1 G 1 69° 44% - - 47° 72° 69.1° - - 977.0
6/21 12:50am 263 0 G 1 70° 43% - - 46° 72° 69.4° - - 977.0
6/21 12:40am 224 1 G 1 70° 42% - - 46° 72° 69.7° - - 976.0
6/21 12:30am 221 1 G 2 71° 42% - - 46° 72° 70.4° - - 976.0
6/21 12:20am 182 0 G 1 71° 41% - - 46° 72° 70.9° - - 976.0
6/21 12:10am 0 0 G 0 72° 40% - - 46° 72° 71.2° - - 976.0
6/21 12:00am 193 0 G 1 72° 39% - - 46° 100.4° 60.8° - - 976.0
6/20 11:50pm 190 0 G 1 73° 38% - - 46° 100.4° 60.8° - - 976.0
6/20 11:40pm 233 1 G 2 74° 37% - - 46° 100.4° 60.8° - - 975.0
6/20 11:30pm 177 0 G 1 74° 37% - - 46° 100.4° 60.8° - - 975.0
6/20 11:20pm 59 0 G 2 75° 35% - - 45° 100.4° 60.8° - - 975.0
6/20 11:10pm 77 0 G 1 76° 33% - - 45° 100.4° 60.8° - - 974.0
6/20 11:00pm 89 2 G 3 75° 34% - - 45° 100.4° 60.8° - - 974.0
6/20 10:50pm 73 0 G 2 75° 35% - - 45° 100.4° 60.8° - - 975.0
6/20 10:40pm 0 0 G 0 75° 34% - - 45° 100.4° 60.8° - - 974.0
6/20 10:30pm 185 1 G 3 77° 32% - - 45° 100.4° 60.8° - - 974.0
6/20 10:20pm 133 1 G 2 80° 30% - - 46° 100.4° 60.8° - - 974.0
6/20 10:10pm 97 3 G 5 79° 31% - - 46° 100.4° 60.8° - - 974.0
6/20 10:00pm 98 3 G 4 78° 31% - - 45° 100.4° 60.8° - - 974.0
6/20 9:50pm 84 4 G 5 78° 31% - - 45° 100.4° 60.8° - - 974.0
6/20 9:40pm 81 3 G 5 80° 32% - - 48° 100.4° 60.8° - - 975.0
6/20 9:30pm 71 0 G 2 79° 36% - - 49° 100.4° 60.8° - - 976.0
6/20 9:20pm 267 0 G 2 79° 36% - - 50° 100.4° 60.8° - - 976.0
6/20 9:10pm 80 0 G 2 80° 36% - - 50° 100.4° 60.8° - - 977.0
6/20 9:00pm 78 1 G 3 80° 35% - - 50° 100.4° 60.8° - - 976.0
6/20 8:50pm 28 2 G 3 81° 34% - - 50° 100.4° 60.8° - - 976.0
6/20 8:40pm 248 2 G 5 82° 34% - - 51° 100.4° 60.8° - - 976.0
6/20 8:30pm 235 2 G 5 84° 31% - - 50° 100.4° 60.8° - - 976.0
6/20 8:20pm 192 4 G 9 85° 31% - - 51° 100.4° 60.8° - - 976.0
6/20 8:10pm 181 9 G 12 86° 30% - - 51° 100.4° 60.8° - - 976.0
6/20 8:00pm 190 8 G 12 87° 29% - - 51° 100.4° 60.8° - - 976.0
6/20 7:50pm 210 6 G 10 88° 28% - - 51° 100.4° 60.8° - - 976.0
6/20 7:40pm 201 8 G 12 88° 28% - - 51° 100.4° 60.8° - - 976.0
6/20 7:30pm 187 10 G 14 89° 27% - - 51° 100.4° 60.8° - - 976.0
6/20 7:20pm 184 11 G 15 90° 27% - - 51° 100.4° 60.8° - - 976.0
6/20 7:10pm 189 10 G 15 90° 26% - - 51° 100.4° 60.8° - - 976.0
6/20 7:00pm 192 9 G 15 91° 26% - - 51° 100.4° 60.8° - - 976.0
6/20 6:50pm 243 7 G 10 91° 25% - - 50° 100.4° 60.8° - - 976.0
6/20 6:40pm 263 9 G 12 92° 24% - - 49° 100.4° 60.8° - - 976.0
6/20 6:30pm 263 9 G 12 92° 23% - - 49° 100.4° 60.8° - - 976.0
6/20 6:20pm 261 8 G 12 92° 23% - - 49° 100.4° 60.8° - - 976.0
6/20 6:10pm 265 10 G 14 92° 23% - - 49° 100.4° 60.8° - - 976.0
6/20 6:00pm 258 10 G 14 93° 22% - - 48° 100.4° 60.8° - - 976.0